Time;durP1;ratioP1;P1;durP2;ratioP2;P2;SDS_P1;SDS_P2;PMS_P1;PMS_P2;Temp;Humidity;BMP_temperature;BMP_pressure;BME280_temperature;BME280_humidity;BME280_pressure;Samples;Min_cycle;Max_cycle;Signal;HPM_P1;HPM_P2
2022/04/28 00:00:33;;;;;;;5.87;4.73;;;;;;;9.19;100.00;96757.94;5042367;28;20205;-82
2022/04/28 00:03:01;;;;;;;5.83;4.50;;;;;;;9.32;100.00;96768.72;5037192;28;20222;-82
2022/04/28 00:05:30;;;;;;;5.10;4.20;;;;;;;9.32;100.00;96762.50;5033795;28;20218;-82
2022/04/28 00:07:57;;;;;;;6.27;4.73;;;;;;;9.31;100.00;96769.75;5026410;28;20217;-82
2022/04/28 00:10:25;;;;;;;8.17;4.57;;;;;;;9.33;100.00;96769.53;5031806;28;20256;-82
2022/04/28 00:12:52;;;;;;;4.60;4.03;;;;;;;9.31;100.00;96768.91;5032297;28;20220;-82
2022/04/28 00:15:19;;;;;;;4.57;4.10;;;;;;;9.33;100.00;96769.53;5034883;28;20219;-82
2022/04/28 00:17:47;;;;;;;4.90;4.37;;;;;;;9.34;100.00;96750.47;5035202;28;20289;-82
2022/04/28 00:20:14;;;;;;;6.77;4.37;;;;;;;9.45;100.00;96754.34;5036810;28;20206;-82
2022/04/28 00:22:45;;;;;;;4.57;3.93;;;;;;;9.52;100.00;96755.16;5021374;28;20305;-82
2022/04/28 00:25:12;;;;;;;4.23;3.83;;;;;;;9.59;100.00;96749.75;5019045;28;20214;-81
2022/04/28 00:27:40;;;;;;;5.90;4.27;;;;;;;9.53;100.00;96739.81;5025466;28;20232;-82
2022/04/28 00:30:09;;;;;;;4.57;3.70;;;;;;;9.54;100.00;96739.59;5022913;28;20353;-82
2022/04/28 00:32:37;;;;;;;5.50;3.60;;;;;;;9.58;100.00;96745.38;5034452;28;20210;-82
2022/04/28 00:35:04;;;;;;;4.20;3.80;;;;;;;9.55;100.00;96746.63;5013389;28;20214;-82
2022/04/28 00:37:31;;;;;;;6.13;4.13;;;;;;;9.54;100.00;96742.28;5036205;28;20198;-82
2022/04/28 00:40:01;;;;;;;5.60;3.70;;;;;;;9.58;100.00;96743.53;5040267;28;20203;-82
2022/04/28 00:42:29;;;;;;;6.17;4.20;;;;;;;9.61;100.00;96740.38;5022778;28;20333;-82
2022/04/28 00:44:56;;;;;;;5.43;3.73;;;;;;;9.59;100.00;96742.50;5015981;28;20216;-82
2022/04/28 00:50:38;;;;;;;4.27;3.87;;;;;;;9.58;100.00;96746.22;5017359;28;20213;-82
2022/04/28 00:52:58;;;;;;;6.43;4.27;;;;;;;9.61;100.00;96756.56;5016442;28;20213;-82
2022/04/28 00:55:28;;;;;;;5.03;3.83;;;;;;;9.48;100.00;96757.44;5035382;28;20201;-82
2022/04/28 00:57:56;;;;;;;4.27;3.67;;;;;;;9.43;100.00;96757.28;5015943;28;20241;-82
2022/04/28 01:00:23;;;;;;;4.53;4.10;;;;;;;9.45;100.00;96757.03;5041727;28;20206;-82
2022/04/28 01:02:51;;;;;;;4.60;4.20;;;;;;;9.42;100.00;96758.31;5047295;28;20226;-82
2022/04/28 01:05:19;;;;;;;4.80;4.10;;;;;;;9.36;100.00;96764.53;5038532;28;20201;-82
2022/04/28 01:07:46;;;;;;;5.60;4.00;;;;;;;9.31;100.00;96766.22;5032541;28;20231;-82
2022/04/28 01:10:13;;;;;;;4.60;3.80;;;;;;;9.27;100.00;96765.81;5014148;28;20268;-82
2022/04/28 01:12:41;;;;;;;5.90;4.07;;;;;;;9.26;100.00;96766.03;5040914;28;20260;-82
2022/04/28 01:15:09;;;;;;;4.77;3.83;;;;;;;9.30;100.00;96772.66;5024413;28;20209;-82
2022/04/28 01:17:37;;;;;;;5.90;4.03;;;;;;;9.32;100.00;96771.41;5020640;28;20203;-82
2022/04/28 01:20:07;;;;;;;4.23;3.67;;;;;;;9.31;100.00;96771.59;5025807;28;20272;-82
2022/04/28 01:22:38;;;;;;;4.07;3.63;;;;;;;9.26;100.00;96779.50;5024328;28;20229;-82
2022/04/28 01:25:12;;;;;;;6.20;4.00;;;;;;;9.22;100.00;96771.00;5028083;28;20203;-82
2022/04/28 01:27:40;;;;;;;6.63;3.70;;;;;;;9.23;100.00;96771.84;5023561;28;20202;-82
2022/04/28 01:30:13;;;;;;;5.40;4.03;;;;;;;9.22;100.00;96773.72;5025865;28;20257;-82
2022/04/28 01:32:43;;;;;;;5.00;3.93;;;;;;;9.21;100.00;96771.22;5029767;28;20214;-82
2022/04/28 01:35:11;;;;;;;4.13;3.73;;;;;;;9.04;100.00;96768.97;5020921;28;20234;-82
2022/04/28 01:37:40;;;;;;;4.10;3.67;;;;;;;8.92;100.00;96773.38;5044358;28;20193;-82
2022/04/28 01:40:12;;;;;;;5.63;3.70;;;;;;;8.82;100.00;96778.34;5032068;28;20203;-82
2022/04/28 01:42:40;;;;;;;5.43;4.53;;;;;;;8.75;100.00;96771.31;5030205;28;20225;-82
2022/04/28 01:45:09;;;;;;;5.13;4.47;;;;;;;8.73;100.00;96779.59;5025563;28;20238;-82
2022/04/28 01:47:47;;;;;;;6.70;4.33;;;;;;;8.65;100.00;96777.13;5033160;28;20209;-82
2022/04/28 01:50:22;;;;;;;5.97;4.40;;;;;;;8.53;100.00;96792.22;5037523;28;20266;-82
2022/04/28 01:56:15;;;;;;;5.00;4.33;;;;;;;8.38;100.00;96795.09;5028241;28;20206;-82
2022/04/28 01:58:53;;;;;;;4.87;4.30;;;;;;;8.31;100.00;96780.81;5020465;28;20261;-82
2022/04/28 02:01:49;;;;;;;5.70;4.47;;;;;;;8.30;100.00;96784.50;5028955;28;20231;-82
2022/04/28 02:04:16;;;;;;;5.37;4.50;;;;;;;8.28;100.00;96781.19;5030795;28;20199;-81
2022/04/28 02:06:44;;;;;;;7.13;4.40;;;;;;;8.25;100.00;96776.25;5024794;28;20198;-81
2022/04/28 02:09:12;;;;;;;5.57;4.40;;;;;;;8.15;100.00;96776.63;5015008;28;20210;-82
2022/04/28 02:11:40;;;;;;;6.30;5.00;;;;;;;8.09;100.00;96792.75;5024253;28;20202;-81
2022/04/28 02:14:34;;;;;;;5.10;4.40;;;;;;;8.02;100.00;96786.53;5022281;28;20228;-82
2022/04/28 02:17:35;;;;;;;5.87;4.87;;;;;;;7.99;100.00;96787.78;4974405;28;20213;-81
2022/04/28 02:20:04;;;;;;;6.93;5.23;;;;;;;7.92;100.00;96787.75;5023981;28;20214;-81
2022/04/28 02:22:33;;;;;;;7.70;4.67;;;;;;;7.94;100.00;96780.31;5044828;28;20219;-82
2022/04/28 02:25:02;;;;;;;4.80;4.30;;;;;;;7.95;100.00;96786.50;5039367;28;20261;-82
2022/04/28 02:27:29;;;;;;;7.10;5.20;;;;;;;7.96;100.00;96793.56;5037710;28;20199;-82
2022/04/28 02:29:56;;;;;;;5.30;4.80;;;;;;;7.97;100.00;96785.28;5026748;28;20203;-82
2022/04/28 02:32:23;;;;;;;6.17;4.33;;;;;;;7.89;100.00;96793.53;5039412;28;20207;-82
2022/04/28 02:34:50;;;;;;;5.50;3.70;;;;;;;7.79;100.00;96792.25;5027818;28;20278;-82
2022/04/28 02:37:18;;;;;;;5.50;4.23;;;;;;;7.62;100.00;96786.41;5019015;28;20241;-82
2022/04/28 02:39:46;;;;;;;5.80;4.10;;;;;;;7.55;100.00;96794.47;5032226;28;20244;-82
2022/04/28 02:42:17;;;;;;;6.13;4.47;;;;;;;7.51;100.00;96790.50;5025801;28;20235;-82
2022/04/28 02:44:44;;;;;;;5.20;4.23;;;;;;;7.54;100.00;96784.75;5023065;28;20210;-81
2022/04/28 02:47:15;;;;;;;4.80;4.20;;;;;;;7.63;100.00;96784.56;5035446;28;20205;-82
2022/04/28 02:49:43;;;;;;;4.43;4.03;;;;;;;7.70;100.00;96786.25;5022426;28;20214;-82
2022/04/28 02:52:12;;;;;;;4.90;4.00;;;;;;;7.77;100.00;96786.25;5024095;28;20195;-82
2022/04/28 02:54:39;;;;;;;6.03;3.70;;;;;;;7.74;100.00;96775.94;5029977;28;20202;-82
2022/04/28 02:57:06;;;;;;;6.73;4.30;;;;;;;7.76;100.00;96771.97;5024224;28;20209;-82
2022/04/28 02:59:35;;;;;;;5.27;3.70;;;;;;;7.86;100.00;96783.19;5018777;28;20206;-82
2022/04/28 03:02:02;;;;;;;4.80;3.67;;;;;;;7.82;100.00;96778.44;5036106;28;20209;-82
2022/04/28 03:04:29;;;;;;;7.37;4.10;;;;;;;7.85;100.00;96786.06;5052654;28;20206;-81
2022/04/28 03:12:31;;;;;;;4.57;3.77;;;;;;;7.79;100.00;96787.72;5018672;28;20218;-82
2022/04/28 03:15:12;;;;;;;4.53;3.27;;;;;;;7.81;100.00;96784.84;5038794;28;20213;-81
2022/04/28 03:17:39;;;;;;;3.77;3.23;;;;;;;7.78;100.00;96779.84;5020010;28;20234;-81
2022/04/28 03:20:07;;;;;;;3.87;3.50;;;;;;;7.77;100.00;96794.31;5023925;28;20194;-81
2022/04/28 03:22:36;;;;;;;3.63;3.27;;;;;;;7.81;100.00;96784.84;5019994;28;20340;-81
2022/04/28 03:25:03;;;;;;;6.17;3.50;;;;;;;7.81;100.00;96782.16;5024747;28;20427;-81
2022/04/28 03:27:32;;;;;;;4.43;3.50;;;;;;;7.80;100.00;96785.84;5036743;28;20213;-81
2022/04/28 03:29:59;;;;;;;4.47;3.47;;;;;;;7.77;100.00;96784.41;5050059;28;20210;-81
2022/04/28 03:32:28;;;;;;;5.77;3.43;;;;;;;7.82;100.00;96786.50;5025918;28;20199;-81
2022/04/28 03:35:05;;;;;;;3.33;3.03;;;;;;;7.78;100.00;96790.59;5034413;28;20193;-81
2022/04/28 03:37:32;;;;;;;4.33;3.10;;;;;;;7.78;100.00;96790.59;5045199;28;20195;-81
2022/04/28 03:39:59;;;;;;;6.77;3.30;;;;;;;7.80;100.00;96799.31;5027648;28;20213;-81
2022/04/28 03:42:27;;;;;;;5.90;3.57;;;;;;;7.77;100.00;96799.69;5027969;28;20317;-81
2022/04/28 03:44:55;;;;;;;4.07;3.40;;;;;;;7.74;100.00;96805.50;5043928;28;20210;-81
2022/04/28 03:47:22;;;;;;;3.93;3.53;;;;;;;7.71;100.00;96805.88;5028815;28;20207;-81
2022/04/28 03:49:51;;;;;;;4.67;3.77;;;;;;;7.69;100.00;96810.63;5032985;28;20210;-81
2022/04/28 03:52:18;;;;;;;3.97;3.33;;;;;;;7.63;100.00;96817.66;5018263;28;20228;-81
2022/04/28 03:54:45;;;;;;;3.70;3.40;;;;;;;7.60;100.00;96809.97;5027695;28;20233;-81
2022/04/28 03:57:13;;;;;;;3.63;3.20;;;;;;;7.60;100.00;96824.22;5028222;28;20279;-81
2022/04/28 03:59:40;;;;;;;9.30;5.50;;;;;;;7.61;100.00;96825.06;5031709;28;20206;-81
2022/04/28 04:02:27;;;;;;;3.80;3.40;;;;;;;7.57;100.00;96832.69;5034130;28;20277;-81
2022/04/28 04:04:56;;;;;;;6.00;3.60;;;;;;;7.46;100.00;96827.06;5021962;28;20217;-81
2022/04/28 04:07:23;;;;;;;6.43;3.93;;;;;;;7.48;100.00;96831.22;5029861;28;20209;-81
2022/04/28 04:09:53;;;;;;;4.03;3.23;;;;;;;7.50;100.00;96845.28;5032542;28;20218;-81
2022/04/28 04:12:32;;;;;;;6.47;3.77;;;;;;;7.54;100.00;96838.47;5020047;28;20346;-81
2022/04/28 04:15:23;;;;;;;11.27;5.50;;;;;;;7.54;100.00;96848.41;5035585;28;20274;-81
2022/04/28 04:18:13;;;;;;;3.87;3.47;;;;;;;7.47;100.00;96843.00;5029723;28;20217;-81
2022/04/28 04:20:53;;;;;;;7.40;3.93;;;;;;;7.34;100.00;96842.06;5017898;28;20236;-80
2022/04/28 04:23:20;;;;;;;5.80;4.10;;;;;;;7.30;100.00;96847.03;5019529;28;20226;-81
2022/04/28 04:25:49;;;;;;;9.57;4.70;;;;;;;7.27;100.00;96849.28;5031020;28;20198;-81
2022/04/28 04:28:21;;;;;;;4.83;3.90;;;;;;;7.24;100.00;96853.16;5025458;28;20210;-81
2022/04/28 04:34:20;;;;;;;5.30;4.53;;;;;;;7.14;100.00;96869.66;4975832;28;20228;-81
2022/04/28 04:36:49;;;;;;;4.70;3.90;;;;;;;7.12;100.00;96862.81;5002288;28;20202;-81
2022/04/28 04:39:16;;;;;;;5.03;4.00;;;;;;;7.06;100.00;96867.09;5013654;28;20257;-81
2022/04/28 04:41:44;;;;;;;6.03;4.70;;;;;;;7.03;100.00;96872.88;5014268;28;20289;-81
2022/04/28 04:44:13;;;;;;;7.43;4.80;;;;;;;7.00;100.00;96872.44;5025008;28;20227;-81
2022/04/28 04:46:42;;;;;;;6.90;5.20;;;;;;;6.98;100.00;96880.66;5024637;28;20209;-81
2022/04/28 04:49:27;;;;;;;7.23;5.37;;;;;;;7.02;100.00;96886.50;5011836;28;20295;-81
2022/04/28 04:52:15;;;;;;;7.10;5.00;;;;;;;6.94;100.00;96892.84;5019639;28;20209;-81
2022/04/28 04:55:00;;;;;;;9.13;5.10;;;;;;;6.86;100.00;96889.47;5023414;28;20218;-81
2022/04/28 04:57:28;;;;;;;9.93;4.90;;;;;;;6.80;100.00;96889.19;5031029;28;20211;-81
2022/04/28 04:59:55;;;;;;;6.97;4.23;;;;;;;6.84;100.00;96887.78;5013478;28;20210;-81
2022/04/28 05:02:24;;;;;;;7.03;4.60;;;;;;;6.90;100.00;96896.91;5039077;28;20207;-81
2022/04/28 05:05:10;;;;;;;5.17;4.13;;;;;;;6.96;100.00;96898.00;5024193;28;20213;-81
2022/04/28 05:07:59;;;;;;;7.00;4.27;;;;;;;6.96;100.00;96903.38;5024895;28;20214;-81
2022/04/28 05:10:26;;;;;;;4.33;3.70;;;;;;;6.90;100.00;96899.59;5040347;28;20207;-80
2022/04/28 05:12:53;;;;;;;8.17;3.80;;;;;;;6.90;100.00;96906.81;5038145;28;20210;-81
2022/04/28 05:15:34;;;;;;;6.27;3.87;;;;;;;6.94;100.00;96910.78;5022000;28;20226;-81
2022/04/28 05:18:19;;;;;;;6.87;3.87;;;;;;;7.03;100.00;96904.25;5024986;28;20301;-81
2022/04/28 05:20:52;;;;;;;5.83;4.03;;;;;;;7.03;100.00;96909.63;5026339;28;20206;-80
2022/04/28 05:23:39;;;;;;;5.87;4.20;;;;;;;7.01;100.00;96906.31;5020494;28;20229;-81
2022/04/28 05:26:25;;;;;;;13.80;4.63;;;;;;;7.08;100.00;96901.81;5023678;28;20199;-81
2022/04/28 05:29:11;;;;;;;7.87;4.00;;;;;;;7.06;100.00;96909.25;5023241;28;20219;-81
2022/04/28 05:32:01;;;;;;;4.90;3.77;;;;;;;6.99;100.00;96908.34;5009540;28;20211;-80
2022/04/28 05:35:01;;;;;;;9.47;3.90;;;;;;;6.95;100.00;96917.84;5013601;28;20203;-80
2022/04/28 05:37:30;;;;;;;7.63;4.07;;;;;;;7.00;100.00;96926.13;5024522;28;20214;-81
2022/04/28 05:39:59;;;;;;;11.37;4.63;;;;;;;7.07;100.00;96921.63;5034023;28;20207;-80
2022/04/28 05:45:41;;;;;;;16.63;4.73;;;;;;;6.99;100.00;96929.81;5027119;28;20289;-81
2022/04/28 05:47:58;;;;;;;6.07;3.80;;;;;;;6.88;100.00;96922.31;5019344;28;20214;-80
2022/04/28 05:50:26;;;;;;;7.43;3.77;;;;;;;6.93;100.00;96927.94;5024876;28;20226;-80
2022/04/28 05:52:54;;;;;;;3.87;3.47;;;;;;;7.03;100.00;96934.63;5013984;28;20203;-80
2022/04/28 05:55:22;;;;;;;4.40;3.80;;;;;;;7.10;100.00;96932.81;5020812;28;20295;-80
2022/04/28 05:57:50;;;;;;;4.17;3.33;;;;;;;7.19;100.00;96920.09;5023444;28;20199;-80
2022/04/28 06:00:19;;;;;;;9.77;4.60;;;;;;;7.19;100.00;96926.28;5022306;28;20195;-81
2022/04/28 06:02:47;;;;;;;6.00;3.97;;;;;;;7.33;100.00;96937.94;5026416;28;20198;-80
2022/04/28 06:05:25;;;;;;;8.10;5.13;;;;;;;7.41;100.00;96940.50;5021213;28;20234;-82
2022/04/28 06:07:53;;;;;;;7.57;5.03;;;;;;;7.46;100.00;96938.06;5024203;28;20207;-79
2022/04/28 06:10:22;;;;;;;7.73;4.07;;;;;;;7.51;100.00;96940.97;5021070;28;20269;-80
2022/04/28 06:12:55;;;;;;;5.07;3.90;;;;;;;7.49;100.00;96947.56;5012298;28;20210;-81
2022/04/28 06:15:28;;;;;;;5.70;4.10;;;;;;;7.46;100.00;96953.34;5024147;28;20234;-80
2022/04/28 06:18:07;;;;;;;7.03;4.20;;;;;;;7.40;100.00;96944.19;5022161;28;20219;-80
2022/04/28 06:20:35;;;;;;;7.27;4.00;;;;;;;7.37;100.00;96957.22;5035403;28;20207;-81
2022/04/28 06:23:10;;;;;;;8.03;4.80;;;;;;;7.39;100.00;96944.44;5021647;28;20227;-80
2022/04/28 06:25:42;;;;;;;6.40;4.20;;;;;;;7.38;100.00;96945.44;5022915;28;20214;-80
2022/04/28 06:28:10;;;;;;;11.17;4.30;;;;;;;7.45;100.00;96947.16;5024751;28;20292;-81
2022/04/28 06:30:39;;;;;;;5.60;4.53;;;;;;;7.42;100.00;96950.22;5033131;28;20246;-80
2022/04/28 06:33:45;;;;;;;7.67;4.40;;;;;;;7.43;100.00;96953.75;4963526;28;20266;-80
2022/04/28 06:36:23;;;;;;;11.87;4.07;;;;;;;7.46;100.00;96951.50;5007273;28;20274;-80
2022/04/28 06:38:52;;;;;;;9.17;4.57;;;;;;;7.53;100.00;96955.06;5026648;28;20207;-80
2022/04/28 06:41:20;;;;;;;15.43;4.83;;;;;;;7.49;100.00;96950.25;5013054;28;20231;-81
2022/04/28 06:43:55;;;;;;;10.10;4.93;;;;;;;7.47;100.00;96955.03;5020970;28;20250;-80
2022/04/28 06:46:31;;;;;;;8.37;4.50;;;;;;;7.49;100.00;96948.41;5011788;28;20200;-81
2022/04/28 06:49:01;;;;;;;6.33;4.53;;;;;;;7.54;100.00;96955.88;5018604;28;20191;-80
2022/04/28 06:51:47;;;;;;;9.83;4.37;;;;;;;7.57;100.00;96961.69;5028958;28;20341;-81
2022/04/28 06:54:27;;;;;;;11.30;4.30;;;;;;;7.63;100.00;96967.31;5020228;28;20312;-81
2022/04/28 06:56:56;;;;;;;6.63;4.90;;;;;;;7.63;100.00;96957.41;5032489;28;20208;-81
2022/04/28 06:59:23;;;;;;;6.47;4.60;;;;;;;7.64;100.00;96959.06;5027716;28;20203;-80
2022/04/28 07:01:52;;;;;;;8.00;4.70;;;;;;;7.64;100.00;96955.53;5035692;28;20293;-80
2022/04/28 07:04:20;;;;;;;5.53;4.27;;;;;;;7.70;100.00;96965.50;5023994;28;20215;-81
2022/04/28 07:06:48;;;;;;;8.00;4.60;;;;;;;7.69;100.00;96958.47;5035009;28;20203;-80
2022/04/28 07:09:15;;;;;;;10.13;5.90;;;;;;;7.75;100.00;96963.03;5034142;28;20230;-81
2022/04/28 07:11:42;;;;;;;7.57;5.13;;;;;;;7.84;100.00;96967.22;5010729;28;20214;-80
2022/04/28 07:14:29;;;;;;;7.37;4.90;;;;;;;7.84;100.00;96961.84;5015680;28;20213;-81
2022/04/28 07:17:34;;;;;;;8.87;5.03;;;;;;;7.87;100.00;96962.31;5019226;28;20293;-81
2022/04/28 07:20:03;;;;;;;5.77;4.10;;;;;;;7.92;100.00;96964.38;5019942;28;20235;-81
2022/04/28 07:22:31;;;;;;;5.10;4.20;;;;;;;7.95;100.00;96966.69;5034182;28;20203;-82
2022/04/28 07:24:58;;;;;;;5.63;4.38;;;;;;;8.01;100.00;96963.19;5027916;28;20423;-80
2022/04/28 07:27:25;;;;;;;4.53;4.13;;;;;;;8.06;100.00;96955.38;5013776;28;20431;-80
2022/04/28 07:30:00;;;;;;;6.10;4.50;;;;;;;8.21;100.00;96961.44;5020566;28;20436;-81
2022/04/28 07:32:40;;;;;;;4.53;4.10;;;;;;;8.62;100.00;96956.00;5034644;28;20249;-80
2022/04/28 07:35:20;;;;;;;4.40;3.63;;;;;;;8.98;100.00;96961.06;5010330;28;20204;-81
2022/04/28 07:38:08;;;;;;;5.67;3.90;;;;;;;9.38;100.00;96959.22;5025090;28;20269;-81
2022/04/28 07:40:36;;;;;;;3.93;3.53;;;;;;;9.76;100.00;96959.41;5019487;28;20238;-81
2022/04/28 07:43:09;;;;;;;4.03;3.27;;;;;;;10.10;100.00;96966.38;5014403;28;20212;-80
2022/04/28 07:45:40;;;;;;;4.30;3.80;;;;;;;10.45;100.00;96966.91;5026633;28;20226;-81
2022/04/28 07:48:13;;;;;;;4.40;3.33;;;;;;;10.76;100.00;96965.28;5040818;28;20210;-82
2022/04/28 07:50:40;;;;;;;7.73;3.80;;;;;;;11.11;100.00;96966.53;5043426;28;20209;-81
2022/04/28 07:53:14;;;;;;;4.03;3.33;;;;;;;11.28;100.00;96975.75;5015898;28;20215;-81
2022/04/28 07:55:41;;;;;;;4.00;3.33;;;;;;;11.51;100.00;96971.63;5015737;28;20256;-80
2022/04/28 07:58:10;;;;;;;4.27;3.40;;;;;;;11.76;100.00;96972.47;5025685;28;20228;-82
2022/04/28 08:01:04;;;;;;;4.17;3.33;;;;;;;11.97;100.00;96968.53;5041501;28;20202;-81
2022/04/28 08:03:32;;;;;;;5.50;4.90;;;;;;;12.31;100.00;96964.41;5034224;28;20309;-81
2022/04/28 08:06:00;;;;;;;6.97;5.47;;;;;;;12.76;100.00;96970.31;5037333;28;20203;-80
2022/04/28 08:08:27;;;;;;;7.10;5.50;;;;;;;13.04;100.00;96970.53;5023037;28;20207;-81
2022/04/28 08:10:54;;;;;;;7.50;5.87;;;;;;;13.35;99.29;96971.38;5040431;28;20211;-81
2022/04/28 08:13:21;;;;;;;8.43;5.80;;;;;;;13.69;96.26;96969.78;5014488;28;20207;-81
2022/04/28 08:16:15;;;;;;;6.80;5.93;;;;;;;13.88;94.29;96972.13;5018595;28;20220;-81
2022/04/28 08:18:44;;;;;;;8.93;5.90;;;;;;;13.94;91.96;96970.38;5028171;28;20209;-81
2022/04/28 08:21:21;;;;;;;9.63;5.87;;;;;;;14.02;93.42;96970.00;5023850;28;20268;-82
2022/04/28 08:23:49;;;;;;;8.67;6.27;;;;;;;14.12;95.71;96970.22;5031496;28;20268;-81
2022/04/28 08:26:17;;;;;;;8.13;6.07;;;;;;;14.32;94.11;96969.84;5018115;28;20195;-81
2022/04/28 08:28:47;;;;;;;8.07;6.40;;;;;;;14.46;91.82;96971.25;5042518;28;20202;-81
2022/04/28 08:31:15;;;;;;;9.67;6.67;;;;;;;14.47;90.56;96975.63;5014131;28;20210;-81
2022/04/28 08:33:43;;;;;;;9.23;7.10;;;;;;;14.56;90.03;96970.66;5024305;28;20210;-81
2022/04/28 08:36:13;;;;;;;9.67;6.80;;;;;;;14.67;90.87;96980.69;5018467;28;20292;-80
2022/04/28 08:38:42;;;;;;;7.90;6.33;;;;;;;14.72;91.68;96978.06;5013433;28;20199;-81
2022/04/28 08:41:12;;;;;;;8.53;6.83;;;;;;;14.65;91.53;96977.38;5014511;28;20240;-81
2022/04/28 08:44:01;;;;;;;10.10;6.23;;;;;;;14.76;89.98;96981.97;5033790;28;20234;-81
2022/04/28 08:49:16;;;;;;;7.40;6.03;;;;;;;15.03;88.49;96985.78;5018923;28;20210;-83
2022/04/28 08:51:44;;;;;;;6.50;5.63;;;;;;;14.98;85.52;96977.50;5030003;28;20206;-82
2022/04/28 08:54:14;;;;;;;8.83;5.97;;;;;;;14.70;87.47;96974.78;5023592;28;20293;-82
2022/04/28 08:56:42;;;;;;;7.20;6.47;;;;;;;15.06;88.82;96979.81;5028325;28;20201;-81
2022/04/28 08:59:09;;;;;;;7.70;6.53;;;;;;;15.10;86.34;96981.00;5034218;28;20237;-81
2022/04/28 09:01:39;;;;;;;7.43;6.03;;;;;;;15.02;88.54;96975.94;5025989;28;20225;-81
2022/04/28 09:04:25;;;;;;;8.33;6.80;;;;;;;15.26;86.03;96984.00;5030521;28;20241;-82
2022/04/28 09:07:15;;;;;;;6.70;6.00;;;;;;;15.42;83.99;96973.13;5003069;28;20214;-81
2022/04/28 09:09:42;;;;;;;8.63;5.50;;;;;;;15.43;83.42;96979.41;5040081;28;20293;-82
2022/04/28 09:12:27;;;;;;;8.00;5.97;;;;;;;15.68;80.70;96970.88;5037478;28;20206;-81
2022/04/28 09:14:55;;;;;;;8.33;5.80;;;;;;;15.31;82.98;96965.84;5035549;28;20202;-82
2022/04/28 09:17:39;;;;;;;7.10;5.57;;;;;;;15.53;83.67;96976.88;5028262;28;20214;-81
2022/04/28 09:20:09;;;;;;;6.03;5.43;;;;;;;15.81;81.15;96970.56;5028938;28;20215;-81
2022/04/28 09:22:42;;;;;;;6.83;5.87;;;;;;;15.83;79.34;96963.78;5019148;28;20229;-80
2022/04/28 09:25:10;;;;;;;8.70;5.77;;;;;;;15.94;81.18;96958.50;5015998;28;20303;-81
2022/04/28 09:27:40;;;;;;;6.73;5.27;;;;;;;16.10;80.69;96953.03;5016815;28;20264;-81
2022/04/28 09:30:13;;;;;;;6.93;6.10;;;;;;;16.16;77.15;96956.66;5027916;28;20233;-82
2022/04/28 09:32:55;;;;;;;9.10;5.77;;;;;;;16.19;78.00;96961.59;5026152;28;20211;-82
2022/04/28 09:35:49;;;;;;;7.77;5.97;;;;;;;16.25;78.55;96950.50;5032950;28;20232;-82
2022/04/28 09:38:53;;;;;;;7.97;6.13;;;;;;;16.39;77.04;96948.25;4994987;28;20225;-82
2022/04/28 09:44:06;;;;;;;7.03;6.33;;;;;;;16.17;77.30;96963.72;5016566;28;20214;-82
2022/04/28 09:46:41;;;;;;;8.00;6.43;;;;;;;15.98;78.47;96948.75;5019861;28;20198;-80
2022/04/28 09:49:12;;;;;;;8.53;6.50;;;;;;;15.95;79.79;96944.63;5038048;28;20221;-82
2022/04/28 09:52:00;;;;;;;8.07;6.27;;;;;;;16.20;79.30;96947.72;5041849;28;20198;-82
2022/04/28 09:54:38;;;;;;;14.70;7.53;;;;;;;16.36;78.29;96946.03;5028193;28;20214;-81
2022/04/28 09:57:09;;;;;;;10.37;6.90;;;;;;;16.16;78.52;96937.59;5015421;28;20234;-82
2022/04/28 09:59:38;;;;;;;11.53;7.80;;;;;;;16.38;77.48;96952.06;5024432;28;20202;-81
2022/04/28 10:02:09;;;;;;;7.53;5.83;;;;;;;16.52;77.03;96945.13;5020153;28;20209;-81
2022/04/28 10:04:38;;;;;;;8.47;6.73;;;;;;;16.61;75.84;96940.09;5027934;28;20249;-79
2022/04/28 10:07:18;;;;;;;7.63;6.13;;;;;;;16.37;75.57;96938.66;5021883;28;20217;-84
2022/04/28 10:09:48;;;;;;;7.73;6.47;;;;;;;16.36;77.07;96937.84;5051806;28;20301;-84
2022/04/28 10:12:21;;;;;;;9.27;6.47;;;;;;;16.42;76.14;96928.66;5029864;28;20198;-81
2022/04/28 10:15:16;;;;;;;7.33;6.33;;;;;;;16.66;77.22;96936.63;5038698;28;20242;-86
2022/04/28 10:17:47;;;;;;;8.27;6.97;;;;;;;16.69;77.88;96944.28;5024868;28;20224;-80
2022/04/28 10:20:21;;;;;;;7.77;6.50;;;;;;;16.79;78.21;96945.22;5034834;28;20209;-80
2022/04/28 10:22:56;;;;;;;7.83;6.47;;;;;;;16.96;77.32;96934.25;5038391;28;20230;-82
2022/04/28 10:34:11;;;;;;;8.27;7.37;;;;;;;16.93;76.33;96930.09;5020732;28;20194;-81
2022/04/28 10:36:53;;;;;;;11.43;7.30;;;;;;;17.04;75.08;96936.50;5016381;28;20271;-81
2022/04/28 10:39:38;;;;;;;8.60;7.50;;;;;;;17.07;75.18;96936.00;5040124;28;20206;-82
2022/04/28 10:42:16;;;;;;;8.17;7.23;;;;;;;16.92;75.22;96938.56;5019894;28;20229;-81
2022/04/28 10:44:55;;;;;;;9.17;7.13;;;;;;;17.11;74.10;96933.56;5024996;28;20218;-81
2022/04/28 10:47:24;;;;;;;9.27;7.43;;;;;;;17.08;74.81;96939.56;5019715;28;20212;-81
2022/04/28 10:49:55;;;;;;;7.87;6.70;;;;;;;17.29;75.85;96938.66;5046403;28;20206;-82
2022/04/28 10:52:25;;;;;;;7.63;6.67;;;;;;;17.47;74.32;96932.00;5049036;28;20242;-81
2022/04/28 10:54:53;;;;;;;9.73;6.60;;;;;;;17.33;71.89;96946.09;5021632;28;20206;-80
2022/04/28 10:57:30;;;;;;;7.50;6.10;;;;;;;17.45;71.86;96935.00;5044300;28;20269;-82
2022/04/28 10:59:57;;;;;;;8.07;6.90;;;;;;;17.59;71.35;96935.41;5036698;28;20198;-82
2022/04/28 11:02:59;;;;;;;8.47;7.20;;;;;;;17.34;72.81;96944.19;5034387;28;20198;-81
2022/04/28 11:05:42;;;;;;;8.80;7.50;;;;;;;17.57;74.55;96943.84;5037751;28;20226;-81
2022/04/28 11:08:37;;;;;;;8.73;7.13;;;;;;;17.85;72.48;96947.38;5035627;28;20207;-81
2022/04/28 11:11:13;;;;;;;7.90;7.10;;;;;;;17.72;71.41;96937.72;5006734;28;20214;-82
2022/04/28 11:13:43;;;;;;;8.73;6.87;;;;;;;17.81;69.37;96940.78;5020452;28;20229;-83
2022/04/28 11:16:12;;;;;;;10.03;6.93;;;;;;;17.97;72.07;96937.06;5022173;28;20328;-83
2022/04/28 11:18:39;;;;;;;10.23;6.93;;;;;;;18.14;69.27;96941.28;5017858;28;20217;-82
2022/04/28 11:21:07;;;;;;;8.33;7.27;;;;;;;18.35;69.25;96938.69;5036142;28;20215;-82
2022/04/28 11:23:42;;;;;;;10.20;7.13;;;;;;;18.60;69.24;96927.09;5026869;28;20205;-82
2022/04/28 11:26:38;;;;;;;8.40;7.50;;;;;;;18.53;71.05;96939.06;5026907;28;20232;-82
2022/04/28 11:29:42;;;;;;;9.30;7.70;;;;;;;18.48;67.95;96932.72;5032042;28;20205;-81
2022/04/28 11:32:09;;;;;;;8.43;6.73;;;;;;;18.48;67.21;96930.81;5026012;28;20232;-82
2022/04/28 11:34:37;;;;;;;10.23;7.23;;;;;;;18.60;67.98;96933.38;5022367;28;20202;-82
2022/04/28 11:37:14;;;;;;;7.90;7.10;;;;;;;18.52;67.12;96933.84;5025402;28;20214;-82
2022/04/28 11:39:43;;;;;;;8.13;7.30;;;;;;;18.59;66.31;96939.09;5019550;28;20268;-82
2022/04/28 11:42:11;;;;;;;8.87;6.93;;;;;;;18.80;66.60;96932.63;5021912;28;20302;-82
2022/04/28 11:44:45;;;;;;;9.33;6.00;;;;;;;19.09;66.98;96927.50;5027039;28;20238;-82
2022/04/28 11:47:13;;;;;;;8.67;6.97;;;;;;;19.18;65.41;96931.38;5024378;28;20213;-82
2022/04/28 11:49:40;;;;;;;8.53;6.80;;;;;;;19.08;67.44;96923.13;5019390;28;20238;-82
2022/04/28 11:52:21;;;;;;;9.20;7.37;;;;;;;19.11;66.91;96930.81;5025181;28;20306;-81
2022/04/28 11:54:52;;;;;;;9.67;7.17;;;;;;;18.78;67.40;96919.22;5040533;28;20217;-82
2022/04/28 11:57:21;;;;;;;8.40;7.03;;;;;;;18.79;66.73;96920.88;5042513;28;20249;-81
2022/04/28 11:59:48;;;;;;;6.97;6.27;;;;;;;19.06;67.96;96917.91;5023370;28;20199;-81
2022/04/28 12:02:26;;;;;;;11.13;7.03;;;;;;;19.55;66.60;96921.06;5025809;28;20224;-81
2022/04/28 12:04:53;;;;;;;7.60;6.72;;;;;;;19.39;63.62;96908.41;5017044;28;20212;-82
2022/04/28 12:07:21;;;;;;;8.07;6.68;;;;;;;19.32;63.88;96913.31;5046995;28;20205;-83
2022/04/28 12:15:23;;;;;;;8.48;6.35;;;;;;;19.73;63.93;96910.63;5016552;28;20261;-81
2022/04/28 12:20:52;;;;;;;7.60;6.40;;;;;;;19.80;62.27;96909.25;5013233;28;20230;-82
2022/04/28 12:23:30;;;;;;;7.30;6.55;;;;;;;19.83;63.46;96907.88;5031955;28;20210;-81
2022/04/28 12:26:00;;;;;;;8.15;6.43;;;;;;;19.98;64.33;96911.44;5041206;28;20323;-82
2022/04/28 12:28:32;;;;;;;10.18;6.60;;;;;;;19.94;61.91;96909.50;5017688;28;20268;-82
2022/04/28 12:31:02;;;;;;;7.85;6.97;;;;;;;20.08;64.10;96901.53;5019962;28;20213;-82
2022/04/28 12:33:29;;;;;;;7.50;6.50;;;;;;;20.38;60.84;96904.25;5034911;28;20205;-82
2022/04/28 12:35:59;;;;;;;10.13;7.10;;;;;;;20.55;61.63;96907.47;5025049;28;20663;-82
2022/04/28 12:38:28;;;;;;;7.63;6.13;;;;;;;20.60;61.67;96907.44;5022535;28;20203;-82